Terminal Aerodrome Forecast
Issued by NWS La Crosse, WI

Home | Current Version | Previous Version | Text Only | Print | Product List | Glossary On
Versions: 1 2 3 4 5 6 7 8 9 10 11 12 13 14 15 16 17 18 19 20 21 22 23 24
000
FTUS43 KARX 172330
TAFLSE
TAF
KLSE 172330Z 1800/1824 33006KT P6SM SKC
     FM180200 VRB03KT P6SM SCT250
     FM181300 07007KT P6SM SCT250
     FM181600 09012G20KT P6SM SCT250=

USA.gov is the U.S. government's official web portal to all federal, state and local government web resources and services.